sensor_id;sensor_type;location;lat;lon;timestamp;temperature;humidity
13251;DHT22;6692;50.710;7.180;2023-09-19T00:01:34;16.50;99.90
13251;DHT22;6692;50.710;7.180;2023-09-19T00:03:35;16.60;99.90
13251;DHT22;6692;50.710;7.180;2023-09-19T00:05:38;16.50;99.90
13251;DHT22;6692;50.710;7.180;2023-09-19T00:07:39;16.50;99.90
13251;DHT22;6692;50.710;7.180;2023-09-19T00:09:41;16.50;99.90
13251;DHT22;6692;50.710;7.180;2023-09-19T00:11:42;16.50;99.90
13251;DHT22;6692;50.710;7.180;2023-09-19T00:13:43;16.50;99.90
13251;DHT22;6692;50.710;7.180;2023-09-19T00:15:44;16.40;99.90
13251;DHT22;6692;50.710;7.180;2023-09-19T00:17:45;16.40;99.90
13251;DHT22;6692;50.710;7.180;2023-09-19T00:19:46;16.40;99.90
13251;DHT22;6692;50.710;7.180;2023-09-19T00:21:46;16.40;99.90
13251;DHT22;6692;50.710;7.180;2023-09-19T00:23:47;16.40;99.90
13251;DHT22;6692;50.710;7.180;2023-09-19T00:25:48;16.30;99.90
13251;DHT22;6692;50.710;7.180;2023-09-19T00:27:49;16.30;99.90
13251;DHT22;6692;50.710;7.180;2023-09-19T00:29:49;16.30;99.90
13251;DHT22;6692;50.710;7.180;2023-09-19T00:31:50;16.30;99.90
13251;DHT22;6692;50.710;7.180;2023-09-19T00:33:51;16.30;99.90
13251;DHT22;6692;50.710;7.180;2023-09-19T00:35:53;16.30;99.90
13251;DHT22;6692;50.710;7.180;2023-09-19T00:37:53;16.30;99.90
13251;DHT22;6692;50.710;7.180;2023-09-19T00:39:53;16.30;99.90
13251;DHT22;6692;50.710;7.180;2023-09-19T00:41:55;16.30;99.90
13251;DHT22;6692;50.710;7.180;2023-09-19T00:43:56;16.40;99.90
13251;DHT22;6692;50.710;7.180;2023-09-19T00:45:57;16.30;99.90
13251;DHT22;6692;50.710;7.180;2023-09-19T00:47:58;16.40;99.90
13251;DHT22;6692;50.710;7.180;2023-09-19T00:49:58;16.40;99.90
13251;DHT22;6692;50.710;7.180;2023-09-19T00:51:59;16.40;99.90
13251;DHT22;6692;50.710;7.180;2023-09-19T00:54:00;16.40;99.90
13251;DHT22;6692;50.710;7.180;2023-09-19T00:56:02;16.30;99.90
13251;DHT22;6692;50.710;7.180;2023-09-19T00:58:02;16.30;99.90
13251;DHT22;6692;50.710;7.180;2023-09-19T01:00:03;16.30;99.90
13251;DHT22;6692;50.710;7.180;2023-09-19T01:02:06;16.40;99.90
13251;DHT22;6692;50.710;7.180;2023-09-19T01:04:06;16.30;99.90
13251;DHT22;6692;50.710;7.180;2023-09-19T01:06:07;16.40;99.90
13251;DHT22;6692;50.710;7.180;2023-09-19T01:08:08;16.50;99.90
13251;DHT22;6692;50.710;7.180;2023-09-19T01:10:10;16.50;99.90
13251;DHT22;6692;50.710;7.180;2023-09-19T01:12:10;16.60;99.90
13251;DHT22;6692;50.710;7.180;2023-09-19T01:14:16;16.60;99.90
13251;DHT22;6692;50.710;7.180;2023-09-19T01:16:26;16.70;99.90
13251;DHT22;6692;50.710;7.180;2023-09-19T01:18:27;16.60;99.90
13251;DHT22;6692;50.710;7.180;2023-09-19T01:20:29;16.70;99.90
13251;DHT22;6692;50.710;7.180;2023-09-19T01:22:53;16.70;99.90
13251;DHT22;6692;50.710;7.180;2023-09-19T01:25:13;16.80;99.90
13251;DHT22;6692;50.710;7.180;2023-09-19T01:27:53;16.80;99.90
13251;DHT22;6692;50.710;7.180;2023-09-19T01:29:38;16.80;99.90
13251;DHT22;6692;50.710;7.180;2023-09-19T01:31:38;16.80;99.90
13251;DHT22;6692;50.710;7.180;2023-09-19T01:33:56;16.80;99.90
13251;DHT22;6692;50.710;7.180;2023-09-19T01:36:01;16.80;99.90
13251;DHT22;6692;50.710;7.180;2023-09-19T01:38:01;16.90;99.90
13251;DHT22;6692;50.710;7.180;2023-09-19T01:40:03;16.90;99.90
13251;DHT22;6692;50.710;7.180;2023-09-19T01:42:07;16.90;99.90
13251;DHT22;6692;50.710;7.180;2023-09-19T01:44:09;16.90;99.90
13251;DHT22;6692;50.710;7.180;2023-09-19T01:46:14;16.90;99.90
13251;DHT22;6692;50.710;7.180;2023-09-19T01:48:33;16.90;99.90
13251;DHT22;6692;50.710;7.180;2023-09-19T01:50:30;16.90;99.90
13251;DHT22;6692;50.710;7.180;2023-09-19T01:52:31;16.90;99.90
13251;DHT22;6692;50.710;7.180;2023-09-19T01:54:33;16.80;99.90
13251;DHT22;6692;50.710;7.180;2023-09-19T01:56:36;16.80;99.90
13251;DHT22;6692;50.710;7.180;2023-09-19T01:58:41;16.90;99.90
13251;DHT22;6692;50.710;7.180;2023-09-19T02:00:41;16.90;99.90
13251;DHT22;6692;50.710;7.180;2023-09-19T02:02:44;16.90;99.90
13251;DHT22;6692;50.710;7.180;2023-09-19T02:04:43;16.90;99.90
13251;DHT22;6692;50.710;7.180;2023-09-19T02:06:44;16.90;99.90
13251;DHT22;6692;50.710;7.180;2023-09-19T02:08:45;16.90;99.90
13251;DHT22;6692;50.710;7.180;2023-09-19T02:10:46;16.90;99.90
13251;DHT22;6692;50.710;7.180;2023-09-19T02:12:46;16.90;99.90
13251;DHT22;6692;50.710;7.180;2023-09-19T02:14:47;16.90;99.90
13251;DHT22;6692;50.710;7.180;2023-09-19T02:16:49;16.90;99.90
13251;DHT22;6692;50.710;7.180;2023-09-19T02:18:49;16.80;99.90
13251;DHT22;6692;50.710;7.180;2023-09-19T02:20:50;16.90;99.90
13251;DHT22;6692;50.710;7.180;2023-09-19T02:22:51;16.80;99.90
13251;DHT22;6692;50.710;7.180;2023-09-19T02:24:53;16.80;99.90
13251;DHT22;6692;50.710;7.180;2023-09-19T02:26:54;16.80;99.90
13251;DHT22;6692;50.710;7.180;2023-09-19T02:28:55;16.80;99.90
13251;DHT22;6692;50.710;7.180;2023-09-19T02:30:56;16.80;99.90
13251;DHT22;6692;50.710;7.180;2023-09-19T02:32:57;16.70;99.90
13251;DHT22;6692;50.710;7.180;2023-09-19T02:34:58;16.70;99.90
13251;DHT22;6692;50.710;7.180;2023-09-19T02:36:59;16.70;99.90
13251;DHT22;6692;50.710;7.180;2023-09-19T02:38:59;16.60;99.90
13251;DHT22;6692;50.710;7.180;2023-09-19T02:41:00;16.60;99.90
13251;DHT22;6692;50.710;7.180;2023-09-19T02:43:02;16.60;99.90
13251;DHT22;6692;50.710;7.180;2023-09-19T02:45:03;16.50;99.90
13251;DHT22;6692;50.710;7.180;2023-09-19T02:47:05;16.50;99.90
13251;DHT22;6692;50.710;7.180;2023-09-19T02:49:06;16.50;99.90
13251;DHT22;6692;50.710;7.180;2023-09-19T02:51:07;16.50;99.90
13251;DHT22;6692;50.710;7.180;2023-09-19T02:53:08;16.50;99.90
13251;DHT22;6692;50.710;7.180;2023-09-19T02:55:09;16.40;99.90
13251;DHT22;6692;50.710;7.180;2023-09-19T02:57:10;16.40;99.90
13251;DHT22;6692;50.710;7.180;2023-09-19T02:59:11;16.40;99.90
13251;DHT22;6692;50.710;7.180;2023-09-19T03:01:12;16.40;99.90
13251;DHT22;6692;50.710;7.180;2023-09-19T03:03:13;16.40;99.90
13251;DHT22;6692;50.710;7.180;2023-09-19T03:05:14;16.40;99.90
13251;DHT22;6692;50.710;7.180;2023-09-19T03:07:14;16.40;99.90
13251;DHT22;6692;50.710;7.180;2023-09-19T03:09:15;16.40;99.90
13251;DHT22;6692;50.710;7.180;2023-09-19T03:11:17;16.40;99.90
13251;DHT22;6692;50.710;7.180;2023-09-19T03:13:18;16.40;99.90
13251;DHT22;6692;50.710;7.180;2023-09-19T03:15:19;16.30;99.90
13251;DHT22;6692;50.710;7.180;2023-09-19T03:17:20;16.40;99.90
13251;DHT22;6692;50.710;7.180;2023-09-19T03:19:21;16.30;99.90
13251;DHT22;6692;50.710;7.180;2023-09-19T03:21:21;16.30;99.90
13251;DHT22;6692;50.710;7.180;2023-09-19T03:23:23;16.40;99.90
13251;DHT22;6692;50.710;7.180;2023-09-19T03:25:24;16.30;99.90
13251;DHT22;6692;50.710;7.180;2023-09-19T03:27:25;16.30;99.90
13251;DHT22;6692;50.710;7.180;2023-09-19T03:29:25;16.30;99.90
13251;DHT22;6692;50.710;7.180;2023-09-19T03:31:26;16.30;99.90
13251;DHT22;6692;50.710;7.180;2023-09-19T03:33:27;16.30;99.90
13251;DHT22;6692;50.710;7.180;2023-09-19T03:35:28;16.30;99.90
13251;DHT22;6692;50.710;7.180;2023-09-19T03:37:29;16.30;99.90
13251;DHT22;6692;50.710;7.180;2023-09-19T03:39:29;16.20;99.90
13251;DHT22;6692;50.710;7.180;2023-09-19T03:41:31;16.30;99.90
13251;DHT22;6692;50.710;7.180;2023-09-19T03:43:32;16.30;99.90
13251;DHT22;6692;50.710;7.180;2023-09-19T03:45:33;16.30;99.90
13251;DHT22;6692;50.710;7.180;2023-09-19T03:47:33;16.30;99.90
13251;DHT22;6692;50.710;7.180;2023-09-19T03:49:34;16.20;99.90
13251;DHT22;6692;50.710;7.180;2023-09-19T03:51:36;16.20;99.90
13251;DHT22;6692;50.710;7.180;2023-09-19T03:53:36;16.20;99.90
13251;DHT22;6692;50.710;7.180;2023-09-19T03:55:38;16.20;99.90
13251;DHT22;6692;50.710;7.180;2023-09-19T03:57:39;16.20;99.90
13251;DHT22;6692;50.710;7.180;2023-09-19T03:59:40;16.20;99.90
13251;DHT22;6692;50.710;7.180;2023-09-19T04:01:41;16.20;99.90
13251;DHT22;6692;50.710;7.180;2023-09-19T04:03:42;16.10;99.90
13251;DHT22;6692;50.710;7.180;2023-09-19T04:05:47;16.10;99.90
13251;DHT22;6692;50.710;7.180;2023-09-19T04:07:48;16.10;99.90
13251;DHT22;6692;50.710;7.180;2023-09-19T04:09:48;16.10;99.90
13251;DHT22;6692;50.710;7.180;2023-09-19T04:11:49;16.10;99.90
13251;DHT22;6692;50.710;7.180;2023-09-19T04:13:50;16.10;99.90
13251;DHT22;6692;50.710;7.180;2023-09-19T04:15:51;16.10;99.90
13251;DHT22;6692;50.710;7.180;2023-09-19T04:17:51;16.00;99.90
13251;DHT22;6692;50.710;7.180;2023-09-19T04:19:52;16.00;99.90
13251;DHT22;6692;50.710;7.180;2023-09-19T04:21:53;15.90;99.90
13251;DHT22;6692;50.710;7.180;2023-09-19T04:23:54;15.90;99.90
13251;DHT22;6692;50.710;7.180;2023-09-19T04:25:54;15.90;99.90
13251;DHT22;6692;50.710;7.180;2023-09-19T04:27:55;15.80;99.90
13251;DHT22;6692;50.710;7.180;2023-09-19T04:29:56;15.80;99.90
13251;DHT22;6692;50.710;7.180;2023-09-19T04:31:57;15.70;99.90
13251;DHT22;6692;50.710;7.180;2023-09-19T04:33:58;15.70;99.90
13251;DHT22;6692;50.710;7.180;2023-09-19T04:35:59;15.70;99.90
13251;DHT22;6692;50.710;7.180;2023-09-19T04:37:59;15.70;99.90
13251;DHT22;6692;50.710;7.180;2023-09-19T04:40:00;15.70;99.90
13251;DHT22;6692;50.710;7.180;2023-09-19T04:42:01;15.70;99.90
13251;DHT22;6692;50.710;7.180;2023-09-19T04:44:03;15.60;99.90
13251;DHT22;6692;50.710;7.180;2023-09-19T04:46:04;15.60;99.90
13251;DHT22;6692;50.710;7.180;2023-09-19T04:48:04;15.60;99.90
13251;DHT22;6692;50.710;7.180;2023-09-19T04:50:09;15.70;99.90
13251;DHT22;6692;50.710;7.180;2023-09-19T04:52:08;15.70;99.90
13251;DHT22;6692;50.710;7.180;2023-09-19T04:54:10;15.70;99.90
13251;DHT22;6692;50.710;7.180;2023-09-19T04:56:10;15.70;99.90
13251;DHT22;6692;50.710;7.180;2023-09-19T04:58:11;15.70;99.90
13251;DHT22;6692;50.710;7.180;2023-09-19T05:00:13;15.70;99.90
13251;DHT22;6692;50.710;7.180;2023-09-19T05:02:13;15.70;99.90
13251;DHT22;6692;50.710;7.180;2023-09-19T05:04:14;15.70;99.90
13251;DHT22;6692;50.710;7.180;2023-09-19T05:06:15;15.70;99.90
13251;DHT22;6692;50.710;7.180;2023-09-19T05:08:16;15.60;99.90
13251;DHT22;6692;50.710;7.180;2023-09-19T05:10:16;15.60;99.90
13251;DHT22;6692;50.710;7.180;2023-09-19T05:12:17;15.60;99.90
13251;DHT22;6692;50.710;7.180;2023-09-19T05:14:18;15.60;99.90
13251;DHT22;6692;50.710;7.180;2023-09-19T05:16:19;15.60;99.90
13251;DHT22;6692;50.710;7.180;2023-09-19T05:18:19;15.60;99.90
13251;DHT22;6692;50.710;7.180;2023-09-19T05:20:20;15.60;99.90
13251;DHT22;6692;50.710;7.180;2023-09-19T05:22:27;15.50;99.90
13251;DHT22;6692;50.710;7.180;2023-09-19T05:24:27;15.50;99.90
13251;DHT22;6692;50.710;7.180;2023-09-19T05:26:28;15.50;99.90
13251;DHT22;6692;50.710;7.180;2023-09-19T05:28:29;15.50;99.90
13251;DHT22;6692;50.710;7.180;2023-09-19T05:30:30;15.40;99.90
13251;DHT22;6692;50.710;7.180;2023-09-19T05:32:31;15.40;99.90
13251;DHT22;6692;50.710;7.180;2023-09-19T05:34:31;15.40;99.90
13251;DHT22;6692;50.710;7.180;2023-09-19T05:36:32;15.40;99.90
13251;DHT22;6692;50.710;7.180;2023-09-19T05:38:33;15.40;99.90
13251;DHT22;6692;50.710;7.180;2023-09-19T05:40:34;15.50;99.90
13251;DHT22;6692;50.710;7.180;2023-09-19T05:42:34;15.50;99.90
13251;DHT22;6692;50.710;7.180;2023-09-19T05:44:35;15.50;99.90
13251;DHT22;6692;50.710;7.180;2023-09-19T05:46:37;15.50;99.90
13251;DHT22;6692;50.710;7.180;2023-09-19T05:48:37;15.50;99.90
13251;DHT22;6692;50.710;7.180;2023-09-19T05:50:38;15.60;99.90
13251;DHT22;6692;50.710;7.180;2023-09-19T05:52:39;15.60;99.90
13251;DHT22;6692;50.710;7.180;2023-09-19T05:54:40;15.70;99.90
13251;DHT22;6692;50.710;7.180;2023-09-19T05:56:40;15.80;99.90
13251;DHT22;6692;50.710;7.180;2023-09-19T05:58:41;15.80;99.90
13251;DHT22;6692;50.710;7.180;2023-09-19T06:00:42;15.80;99.90
13251;DHT22;6692;50.710;7.180;2023-09-19T06:02:43;15.80;99.90
13251;DHT22;6692;50.710;7.180;2023-09-19T06:04:43;15.90;99.90
13251;DHT22;6692;50.710;7.180;2023-09-19T06:06:44;15.90;99.90
13251;DHT22;6692;50.710;7.180;2023-09-19T06:08:45;15.90;99.90
13251;DHT22;6692;50.710;7.180;2023-09-19T06:10:46;16.00;99.90
13251;DHT22;6692;50.710;7.180;2023-09-19T06:12:46;16.00;99.90
13251;DHT22;6692;50.710;7.180;2023-09-19T06:14:47;16.10;99.90
13251;DHT22;6692;50.710;7.180;2023-09-19T06:16:48;16.10;99.90
13251;DHT22;6692;50.710;7.180;2023-09-19T06:18:48;16.10;99.90
13251;DHT22;6692;50.710;7.180;2023-09-19T06:20:49;16.20;99.90
13251;DHT22;6692;50.710;7.180;2023-09-19T06:22:50;16.20;99.90
13251;DHT22;6692;50.710;7.180;2023-09-19T06:24:51;16.20;99.90
13251;DHT22;6692;50.710;7.180;2023-09-19T06:26:52;16.30;99.90
13251;DHT22;6692;50.710;7.180;2023-09-19T06:28:53;16.30;99.90
13251;DHT22;6692;50.710;7.180;2023-09-19T06:30:54;16.30;99.90
13251;DHT22;6692;50.710;7.180;2023-09-19T06:32:55;16.30;99.90
13251;DHT22;6692;50.710;7.180;2023-09-19T06:34:55;16.30;99.90
13251;DHT22;6692;50.710;7.180;2023-09-19T06:36:56;16.30;99.90
13251;DHT22;6692;50.710;7.180;2023-09-19T06:38:57;16.30;99.90
13251;DHT22;6692;50.710;7.180;2023-09-19T06:40:58;16.40;99.90
13251;DHT22;6692;50.710;7.180;2023-09-19T06:42:59;16.50;99.90
13251;DHT22;6692;50.710;7.180;2023-09-19T06:45:00;16.40;99.90
13251;DHT22;6692;50.710;7.180;2023-09-19T06:47:01;16.50;99.90
13251;DHT22;6692;50.710;7.180;2023-09-19T06:49:02;16.50;99.90
13251;DHT22;6692;50.710;7.180;2023-09-19T06:51:03;16.50;99.90
13251;DHT22;6692;50.710;7.180;2023-09-19T06:53:04;16.50;99.90
13251;DHT22;6692;50.710;7.180;2023-09-19T06:55:06;16.50;99.90
13251;DHT22;6692;50.710;7.180;2023-09-19T06:57:06;16.50;99.90
13251;DHT22;6692;50.710;7.180;2023-09-19T06:59:07;16.50;99.90
13251;DHT22;6692;50.710;7.180;2023-09-19T07:01:09;16.60;99.90
13251;DHT22;6692;50.710;7.180;2023-09-19T07:03:10;16.60;99.90
13251;DHT22;6692;50.710;7.180;2023-09-19T07:05:12;16.60;99.90
13251;DHT22;6692;50.710;7.180;2023-09-19T07:07:13;16.60;99.90
13251;DHT22;6692;50.710;7.180;2023-09-19T07:09:14;16.70;99.90
13251;DHT22;6692;50.710;7.180;2023-09-19T07:11:15;16.80;99.90
13251;DHT22;6692;50.710;7.180;2023-09-19T07:13:15;16.80;99.90
13251;DHT22;6692;50.710;7.180;2023-09-19T07:15:17;16.90;99.90
13251;DHT22;6692;50.710;7.180;2023-09-19T07:17:18;17.00;99.90
13251;DHT22;6692;50.710;7.180;2023-09-19T07:19:19;17.10;99.90
13251;DHT22;6692;50.710;7.180;2023-09-19T07:21:20;17.10;99.90
13251;DHT22;6692;50.710;7.180;2023-09-19T07:23:21;17.10;99.90
13251;DHT22;6692;50.710;7.180;2023-09-19T07:25:22;17.10;99.90
13251;DHT22;6692;50.710;7.180;2023-09-19T07:27:22;17.20;99.90
13251;DHT22;6692;50.710;7.180;2023-09-19T07:29:23;17.20;99.90
13251;DHT22;6692;50.710;7.180;2023-09-19T07:31:25;17.30;99.90
13251;DHT22;6692;50.710;7.180;2023-09-19T07:33:25;17.30;99.90
13251;DHT22;6692;50.710;7.180;2023-09-19T07:35:26;17.30;99.90
13251;DHT22;6692;50.710;7.180;2023-09-19T07:37:27;17.40;99.90
13251;DHT22;6692;50.710;7.180;2023-09-19T07:39:28;17.40;99.90
13251;DHT22;6692;50.710;7.180;2023-09-19T07:41:29;17.40;99.90
13251;DHT22;6692;50.710;7.180;2023-09-19T07:43:31;17.40;99.90
13251;DHT22;6692;50.710;7.180;2023-09-19T07:45:32;17.50;99.90
13251;DHT22;6692;50.710;7.180;2023-09-19T07:47:33;17.40;99.90
13251;DHT22;6692;50.710;7.180;2023-09-19T07:49:34;17.50;99.90
13251;DHT22;6692;50.710;7.180;2023-09-19T07:51:35;17.40;99.90
13251;DHT22;6692;50.710;7.180;2023-09-19T07:53:37;17.40;99.90
13251;DHT22;6692;50.710;7.180;2023-09-19T07:55:38;17.40;99.90
13251;DHT22;6692;50.710;7.180;2023-09-19T07:57:39;17.40;99.90
13251;DHT22;6692;50.710;7.180;2023-09-19T07:59:39;17.40;99.90
13251;DHT22;6692;50.710;7.180;2023-09-19T08:01:40;17.40;99.90
13251;DHT22;6692;50.710;7.180;2023-09-19T08:03:41;17.50;99.90
13251;DHT22;6692;50.710;7.180;2023-09-19T08:05:42;17.50;99.90
13251;DHT22;6692;50.710;7.180;2023-09-19T08:07:44;17.60;99.90
13251;DHT22;6692;50.710;7.180;2023-09-19T08:09:44;17.50;99.90
13251;DHT22;6692;50.710;7.180;2023-09-19T08:11:45;17.60;99.90
13251;DHT22;6692;50.710;7.180;2023-09-19T08:13:45;17.60;99.90
13251;DHT22;6692;50.710;7.180;2023-09-19T08:15:46;17.70;99.90
13251;DHT22;6692;50.710;7.180;2023-09-19T08:17:47;17.70;99.90
13251;DHT22;6692;50.710;7.180;2023-09-19T08:19:49;17.70;99.90
13251;DHT22;6692;50.710;7.180;2023-09-19T08:21:50;17.70;99.90
13251;DHT22;6692;50.710;7.180;2023-09-19T08:23:51;17.70;99.90
13251;DHT22;6692;50.710;7.180;2023-09-19T08:25:55;17.70;99.90
13251;DHT22;6692;50.710;7.180;2023-09-19T08:27:52;17.70;99.90
13251;DHT22;6692;50.710;7.180;2023-09-19T08:29:53;17.80;99.90
13251;DHT22;6692;50.710;7.180;2023-09-19T08:31:55;17.80;99.90
13251;DHT22;6692;50.710;7.180;2023-09-19T08:33:55;17.80;99.90
13251;DHT22;6692;50.710;7.180;2023-09-19T08:35:56;17.80;99.90
13251;DHT22;6692;50.710;7.180;2023-09-19T08:37:58;17.80;99.90
13251;DHT22;6692;50.710;7.180;2023-09-19T08:39:59;17.90;99.90
13251;DHT22;6692;50.710;7.180;2023-09-19T08:42:01;17.90;99.90
13251;DHT22;6692;50.710;7.180;2023-09-19T08:44:01;17.90;99.90
13251;DHT22;6692;50.710;7.180;2023-09-19T08:46:09;17.90;99.90
13251;DHT22;6692;50.710;7.180;2023-09-19T08:48:23;17.90;99.90
13251;DHT22;6692;50.710;7.180;2023-09-19T08:50:26;18.00;99.90
13251;DHT22;6692;50.710;7.180;2023-09-19T08:52:32;18.00;99.90
13251;DHT22;6692;50.710;7.180;2023-09-19T08:54:29;18.00;99.90
13251;DHT22;6692;50.710;7.180;2023-09-19T08:56:30;18.10;99.90
13251;DHT22;6692;50.710;7.180;2023-09-19T08:58:34;18.20;99.90
13251;DHT22;6692;50.710;7.180;2023-09-19T09:00:32;18.10;99.90
13251;DHT22;6692;50.710;7.180;2023-09-19T09:02:34;18.20;99.90
13251;DHT22;6692;50.710;7.180;2023-09-19T09:04:34;18.20;99.90
13251;DHT22;6692;50.710;7.180;2023-09-19T09:06:36;18.20;99.90
13251;DHT22;6692;50.710;7.180;2023-09-19T09:08:37;18.20;99.90
13251;DHT22;6692;50.710;7.180;2023-09-19T09:10:37;18.20;99.90
13251;DHT22;6692;50.710;7.180;2023-09-19T09:12:39;18.20;99.90
13251;DHT22;6692;50.710;7.180;2023-09-19T09:14:44;18.20;99.90
13251;DHT22;6692;50.710;7.180;2023-09-19T09:16:44;18.20;99.90
13251;DHT22;6692;50.710;7.180;2023-09-19T09:18:45;18.30;99.90
13251;DHT22;6692;50.710;7.180;2023-09-19T09:20:46;18.30;99.90
13251;DHT22;6692;50.710;7.180;2023-09-19T09:22:51;18.20;99.90
13251;DHT22;6692;50.710;7.180;2023-09-19T09:24:53;18.30;99.90
13251;DHT22;6692;50.710;7.180;2023-09-19T09:26:54;18.30;99.90
13251;DHT22;6692;50.710;7.180;2023-09-19T09:28:55;18.30;99.90
13251;DHT22;6692;50.710;7.180;2023-09-19T09:30:57;18.30;99.90
13251;DHT22;6692;50.710;7.180;2023-09-19T09:33:08;18.30;99.90
13251;DHT22;6692;50.710;7.180;2023-09-19T09:35:08;18.50;99.90
13251;DHT22;6692;50.710;7.180;2023-09-19T09:37:14;18.40;99.90
13251;DHT22;6692;50.710;7.180;2023-09-19T09:39:14;18.40;99.90
13251;DHT22;6692;50.710;7.180;2023-09-19T09:41:17;18.50;99.90
13251;DHT22;6692;50.710;7.180;2023-09-19T09:43:26;18.50;99.90
13251;DHT22;6692;50.710;7.180;2023-09-19T09:45:26;18.50;99.90
13251;DHT22;6692;50.710;7.180;2023-09-19T09:47:50;18.50;99.90
13251;DHT22;6692;50.710;7.180;2023-09-19T09:49:50;18.50;99.90
13251;DHT22;6692;50.710;7.180;2023-09-19T09:52:00;18.50;99.90
13251;DHT22;6692;50.710;7.180;2023-09-19T09:54:11;18.60;99.90
13251;DHT22;6692;50.710;7.180;2023-09-19T09:56:12;18.60;99.90
13251;DHT22;6692;50.710;7.180;2023-09-19T09:58:15;18.60;99.90
13251;DHT22;6692;50.710;7.180;2023-09-19T10:00:17;18.70;99.90
13251;DHT22;6692;50.710;7.180;2023-09-19T10:02:18;18.70;99.90
13251;DHT22;6692;50.710;7.180;2023-09-19T10:04:27;18.80;99.90
13251;DHT22;6692;50.710;7.180;2023-09-19T10:06:39;18.80;99.90
13251;DHT22;6692;50.710;7.180;2023-09-19T10:08:28;18.90;99.90
13251;DHT22;6692;50.710;7.180;2023-09-19T10:10:32;18.90;99.90
13251;DHT22;6692;50.710;7.180;2023-09-19T10:12:53;19.00;99.90
13251;DHT22;6692;50.710;7.180;2023-09-19T10:14:53;19.10;99.90
13251;DHT22;6692;50.710;7.180;2023-09-19T10:16:54;19.10;99.90
13251;DHT22;6692;50.710;7.180;2023-09-19T10:18:56;19.30;99.90
13251;DHT22;6692;50.710;7.180;2023-09-19T10:20:56;19.30;99.90
13251;DHT22;6692;50.710;7.180;2023-09-19T10:22:57;19.40;99.90
13251;DHT22;6692;50.710;7.180;2023-09-19T10:24:58;19.50;99.90
13251;DHT22;6692;50.710;7.180;2023-09-19T10:26:59;19.60;99.90
13251;DHT22;6692;50.710;7.180;2023-09-19T10:28:59;19.70;99.90
13251;DHT22;6692;50.710;7.180;2023-09-19T10:31:00;19.70;99.90
13251;DHT22;6692;50.710;7.180;2023-09-19T10:33:03;19.80;99.90
13251;DHT22;6692;50.710;7.180;2023-09-19T10:35:03;19.80;99.90
13251;DHT22;6692;50.710;7.180;2023-09-19T10:37:04;19.90;99.90
13251;DHT22;6692;50.710;7.180;2023-09-19T10:39:05;20.00;99.90
13251;DHT22;6692;50.710;7.180;2023-09-19T10:41:06;20.20;99.90
13251;DHT22;6692;50.710;7.180;2023-09-19T10:43:07;20.10;99.90
13251;DHT22;6692;50.710;7.180;2023-09-19T10:45:09;20.20;99.90
13251;DHT22;6692;50.710;7.180;2023-09-19T10:47:10;20.20;99.90
13251;DHT22;6692;50.710;7.180;2023-09-19T10:49:11;20.20;99.90
13251;DHT22;6692;50.710;7.180;2023-09-19T10:51:13;20.50;99.90
13251;DHT22;6692;50.710;7.180;2023-09-19T10:53:14;20.50;99.90
13251;DHT22;6692;50.710;7.180;2023-09-19T10:55:15;20.50;99.90
13251;DHT22;6692;50.710;7.180;2023-09-19T10:57:18;20.60;99.90
13251;DHT22;6692;50.710;7.180;2023-09-19T10:59:17;20.70;99.90
13251;DHT22;6692;50.710;7.180;2023-09-19T11:01:17;20.70;99.90
13251;DHT22;6692;50.710;7.180;2023-09-19T11:03:18;20.70;99.90
13251;DHT22;6692;50.710;7.180;2023-09-19T11:05:19;20.60;99.90
13251;DHT22;6692;50.710;7.180;2023-09-19T11:07:20;20.60;99.90
13251;DHT22;6692;50.710;7.180;2023-09-19T11:09:21;20.70;99.90
13251;DHT22;6692;50.710;7.180;2023-09-19T11:13:35;20.80;99.90
13251;DHT22;6692;50.710;7.180;2023-09-19T11:16:04;20.90;99.90
13251;DHT22;6692;50.710;7.180;2023-09-19T11:18:08;21.00;99.90
13251;DHT22;6692;50.710;7.180;2023-09-19T11:20:20;21.10;99.90
13251;DHT22;6692;50.710;7.180;2023-09-19T11:22:34;21.10;99.90
13251;DHT22;6692;50.710;7.180;2023-09-19T11:24:28;21.10;99.90
13251;DHT22;6692;50.710;7.180;2023-09-19T11:26:39;21.10;99.90
13251;DHT22;6692;50.710;7.180;2023-09-19T11:28:33;20.90;99.90
13251;DHT22;6692;50.710;7.180;2023-09-19T11:30:35;20.90;99.90
13251;DHT22;6692;50.710;7.180;2023-09-19T11:35:07;20.70;99.90
13251;DHT22;6692;50.710;7.180;2023-09-19T11:38:00;20.60;99.90
13251;DHT22;6692;50.710;7.180;2023-09-19T11:40:06;20.50;99.90
13251;DHT22;6692;50.710;7.180;2023-09-19T11:44:34;20.50;99.90
13251;DHT22;6692;50.710;7.180;2023-09-19T11:48:43;20.40;99.90
13251;DHT22;6692;50.710;7.180;2023-09-19T11:50:43;20.60;99.90
13251;DHT22;6692;50.710;7.180;2023-09-19T11:52:45;20.80;99.90
13251;DHT22;6692;50.710;7.180;2023-09-19T11:54:47;20.90;99.90
13251;DHT22;6692;50.710;7.180;2023-09-19T11:56:48;20.80;99.90
13251;DHT22;6692;50.710;7.180;2023-09-19T11:58:49;20.90;99.90
13251;DHT22;6692;50.710;7.180;2023-09-19T12:00:53;20.90;99.90
13251;DHT22;6692;50.710;7.180;2023-09-19T12:02:51;20.80;99.90
13251;DHT22;6692;50.710;7.180;2023-09-19T12:04:53;20.80;99.90
13251;DHT22;6692;50.710;7.180;2023-09-19T12:06:56;20.70;99.90
13251;DHT22;6692;50.710;7.180;2023-09-19T12:08:56;20.70;99.90
13251;DHT22;6692;50.710;7.180;2023-09-19T12:10:58;20.60;99.90
13251;DHT22;6692;50.710;7.180;2023-09-19T12:12:59;20.60;99.90
13251;DHT22;6692;50.710;7.180;2023-09-19T12:15:00;20.50;99.90
13251;DHT22;6692;50.710;7.180;2023-09-19T12:17:01;20.40;99.90
13251;DHT22;6692;50.710;7.180;2023-09-19T12:19:17;20.40;99.90
13251;DHT22;6692;50.710;7.180;2023-09-19T12:21:21;20.40;99.90
13251;DHT22;6692;50.710;7.180;2023-09-19T12:23:21;20.40;99.90
13251;DHT22;6692;50.710;7.180;2023-09-19T12:25:22;20.40;99.90
13251;DHT22;6692;50.710;7.180;2023-09-19T12:27:22;20.40;99.90
13251;DHT22;6692;50.710;7.180;2023-09-19T12:29:23;20.30;99.90
13251;DHT22;6692;50.710;7.180;2023-09-19T12:31:24;20.30;99.90
13251;DHT22;6692;50.710;7.180;2023-09-19T12:33:25;20.30;99.90
13251;DHT22;6692;50.710;7.180;2023-09-19T12:35:28;20.30;99.90
13251;DHT22;6692;50.710;7.180;2023-09-19T12:37:28;20.50;99.90
13251;DHT22;6692;50.710;7.180;2023-09-19T12:39:29;20.90;99.90
13251;DHT22;6692;50.710;7.180;2023-09-19T12:41:30;21.50;99.90
13251;DHT22;6692;50.710;7.180;2023-09-19T12:43:31;21.90;99.90
13251;DHT22;6692;50.710;7.180;2023-09-19T12:45:33;22.40;99.90
13251;DHT22;6692;50.710;7.180;2023-09-19T12:47:35;22.90;99.90
13251;DHT22;6692;50.710;7.180;2023-09-19T12:49:35;23.30;99.90
13251;DHT22;6692;50.710;7.180;2023-09-19T12:51:38;23.60;99.90
13251;DHT22;6692;50.710;7.180;2023-09-19T12:53:40;23.80;99.90
13251;DHT22;6692;50.710;7.180;2023-09-19T12:55:41;24.10;99.90
13251;DHT22;6692;50.710;7.180;2023-09-19T12:57:41;24.20;99.90
13251;DHT22;6692;50.710;7.180;2023-09-19T12:59:42;24.30;99.90
13251;DHT22;6692;50.710;7.180;2023-09-19T13:01:43;24.40;99.90
13251;DHT22;6692;50.710;7.180;2023-09-19T13:03:44;24.40;97.90
13251;DHT22;6692;50.710;7.180;2023-09-19T13:05:46;24.40;96.00
13251;DHT22;6692;50.710;7.180;2023-09-19T13:07:47;24.40;97.50
13251;DHT22;6692;50.710;7.180;2023-09-19T13:12:01;24.20;97.10
13251;DHT22;6692;50.710;7.180;2023-09-19T13:14:18;24.30;99.70